Laguardia, Spain
Current Conditions -  °F | °C
As of 3:00 PM on Monday 24 Nov 2014 (Local Time) from LELO Reporting Station
Few Clouds Few Clouds  
Wind Chill: 64°   Ceiling: Unl
Heat Index: 64°   Visibility: 6mi
Dew Point: 55°   Wind: 1mph
Humidity: 73%   Direction: NA
Pressure: 30.06"   Gusts: NA
Location:  42.55°N, 2.58°W
Report Text: LELO 241400Z VRB01KT 9999 FEW030 18/13 Q1018
Loading
Personal Weather Stations






























Interactive Weather Map New forecast layout! Learn more

10-Day Weather Forecast

Advertisements
Track Severe Weather on mobile